Time;durP1;ratioP1;P1;durP2;ratioP2;P2;SDS_P1;SDS_P2;PMS_P1;PMS_P2;Temp;Humidity;BMP_temperature;BMP_pressure;BME280_temperature;BME280_humidity;BME280_pressure;Samples;Min_cycle;Max_cycle;Signal;HPM_P1;HPM_P2
2023/09/11 00:01:36;;;;;;;24.33;14.95;;;14.20;99.90;;;;;;5031961;28;20437;-79
2023/09/11 00:04:01;;;;;;;31.58;18.90;;;14.20;99.90;;;;;;5041427;28;20470;-81
2023/09/11 00:06:27;;;;;;;31.25;17.48;;;14.10;99.90;;;;;;5038718;28;20146;-81
2023/09/11 00:08:53;;;;;;;31.10;17.73;;;14.10;99.90;;;;;;5019153;28;20022;-78
2023/09/11 00:11:19;;;;;;;23.10;14.60;;;14.10;99.90;;;;;;5037350;28;20021;-77
2023/09/11 00:13:44;;;;;;;22.15;12.43;;;14.00;99.90;;;;;;5040028;28;20034;-77
2023/09/11 00:16:10;;;;;;;19.77;12.27;;;14.00;99.90;;;;;;5037137;28;20028;-81
2023/09/11 00:18:37;;;;;;;17.98;12.68;;;13.90;99.90;;;;;;5023382;28;20033;-77
2023/09/11 00:21:03;;;;;;;18.70;11.98;;;13.90;99.90;;;;;;5042340;28;20029;-78
2023/09/11 00:23:29;;;;;;;19.17;12.07;;;13.80;99.90;;;;;;5029114;28;20025;-80
2023/09/11 00:25:54;;;;;;;16.70;11.63;;;13.80;99.90;;;;;;5031204;28;20105;-78
2023/09/11 00:28:20;;;;;;;17.55;11.98;;;13.80;99.90;;;;;;5025527;28;20034;-78
2023/09/11 00:30:45;;;;;;;15.20;11.23;;;13.80;99.90;;;;;;5031245;28;20029;-80
2023/09/11 00:33:11;;;;;;;15.45;10.82;;;13.80;99.90;;;;;;5016608;28;20571;-79
2023/09/11 00:35:37;;;;;;;15.73;10.95;;;13.80;99.90;;;;;;5030958;28;20096;-79
2023/09/11 00:38:02;;;;;;;17.48;11.48;;;13.80;99.90;;;;;;5028929;28;20051;-79
2023/09/11 00:40:28;;;;;;;18.42;11.88;;;13.80;99.90;;;;;;5013399;28;20033;-80
2023/09/11 00:42:53;;;;;;;16.50;10.68;;;13.80;99.90;;;;;;5024166;28;20277;-80
2023/09/11 00:45:19;;;;;;;20.77;11.15;;;13.70;99.90;;;;;;5030293;28;20491;-80
2023/09/11 00:47:47;;;;;;;14.18;10.82;;;13.70;99.90;;;;;;5020789;28;20022;-79
2023/09/11 00:50:16;;;;;;;19.92;13.30;;;13.70;99.90;;;;;;5042822;28;20018;-79
2023/09/11 00:52:43;;;;;;;24.98;14.45;;;13.70;99.90;;;;;;5023820;28;20030;-80
2023/09/11 00:55:09;;;;;;;16.58;10.93;;;13.60;99.90;;;;;;5041001;28;20483;-79
2023/09/11 00:57:35;;;;;;;18.88;12.63;;;13.50;99.90;;;;;;5037940;28;20022;-80
2023/09/11 01:00:02;;;;;;;19.38;12.98;;;13.50;99.90;;;;;;5037460;28;20037;-80
2023/09/11 01:02:29;;;;;;;21.45;13.32;;;13.50;99.90;;;;;;5042218;28;20067;-79
2023/09/11 01:04:54;;;;;;;14.93;10.63;;;13.40;99.90;;;;;;5029492;28;20394;-80
2023/09/11 01:07:20;;;;;;;14.68;10.82;;;13.40;99.90;;;;;;5034675;28;20030;-80
2023/09/11 01:09:45;;;;;;;17.42;11.40;;;13.50;99.90;;;;;;5018828;28;20033;-79
2023/09/11 01:12:11;;;;;;;14.10;10.48;;;13.40;99.90;;;;;;5028561;28;20029;-80
2023/09/11 01:14:37;;;;;;;12.20;10.90;;;13.40;99.90;;;;;;5029070;28;20021;-80
2023/09/11 01:17:10;;;;;;;14.13;10.45;;;13.40;99.90;;;;;;5029584;28;20025;-80
2023/09/11 01:19:45;;;;;;;;;;;13.40;99.90;;;;;;5027300;28;20036;-79
2023/09/11 01:22:14;;;;;;;11.68;9.80;;;13.40;99.90;;;;;;5032419;28;19989;-79
2023/09/11 01:24:50;;;;;;;12.27;10.30;;;13.40;99.90;;;;;;5029052;28;20121;-81
2023/09/11 01:27:53;;;;;;;13.98;9.18;;;13.40;99.90;;;;;;5026349;28;20029;-81
2023/09/11 01:30:21;;;;;;;14.10;11.13;;;13.40;99.90;;;;;;5026032;28;20044;-78
2023/09/11 01:32:48;;;;;;;14.35;9.80;;;13.40;99.90;;;;;;5022207;28;20018;-79
2023/09/11 01:35:14;;;;;;;16.23;10.95;;;13.30;99.90;;;;;;5027975;28;20062;-80
2023/09/11 01:37:39;;;;;;;13.30;10.60;;;13.30;99.90;;;;;;5019975;28;20042;-78
2023/09/11 01:40:06;;;;;;;13.35;9.70;;;13.30;99.90;;;;;;5027720;28;20112;-78
2023/09/11 01:42:42;;;;;;;14.43;9.90;;;13.30;99.90;;;;;;5029754;28;20028;-78
2023/09/11 01:45:13;;;;;;;15.25;11.02;;;13.30;99.90;;;;;;5029861;28;20017;-81
2023/09/11 01:47:39;;;;;;;12.15;9.57;;;13.20;99.90;;;;;;5023385;28;20022;-80
2023/09/11 01:50:06;;;;;;;13.35;9.85;;;13.20;99.90;;;;;;5027646;28;20026;-81
2023/09/11 01:52:33;;;;;;;12.05;9.25;;;13.20;99.90;;;;;;5020381;28;20446;-78
2023/09/11 01:54:59;;;;;;;13.43;9.55;;;13.10;99.90;;;;;;5016367;28;20040;-81
2023/09/11 01:57:28;;;;;;;11.70;9.35;;;13.10;99.90;;;;;;5018059;28;20480;-78
2023/09/11 01:59:53;;;;;;;11.73;9.27;;;13.00;99.90;;;;;;5019936;28;20022;-79
2023/09/11 02:02:19;;;;;;;11.85;8.82;;;13.00;99.90;;;;;;5036813;28;20036;-81
2023/09/11 02:04:45;;;;;;;14.77;8.38;;;13.00;99.90;;;;;;5020479;28;20029;-80
2023/09/11 02:07:11;;;;;;;9.18;8.13;;;13.00;99.90;;;;;;5027291;28;20013;-80
2023/09/11 02:09:37;;;;;;;11.05;9.40;;;13.00;99.90;;;;;;5018553;28;20052;-80
2023/09/11 02:12:02;;;;;;;11.23;8.55;;;13.00;99.90;;;;;;5041923;28;20025;-81
2023/09/11 02:14:28;;;;;;;11.18;9.07;;;13.00;99.90;;;;;;5031787;28;20028;-78
2023/09/11 02:16:54;;;;;;;16.08;10.45;;;13.00;99.90;;;;;;5034373;28;20489;-79
2023/09/11 02:19:21;;;;;;;11.70;9.40;;;12.90;99.90;;;;;;5025512;28;20025;-79
2023/09/11 02:21:46;;;;;;;11.07;9.10;;;12.90;99.90;;;;;;5031382;28;20037;-79
2023/09/11 02:24:12;;;;;;;13.05;9.32;;;12.90;99.90;;;;;;5017385;28;20566;-79
2023/09/11 02:26:37;;;;;;;15.27;9.38;;;12.90;99.90;;;;;;5039388;28;20022;-79
2023/09/11 02:29:03;;;;;;;11.27;9.57;;;12.90;99.90;;;;;;5023910;28;20045;-79
2023/09/11 02:31:29;;;;;;;14.52;10.75;;;12.90;99.90;;;;;;5029296;28;20040;-79
2023/09/11 02:33:54;;;;;;;11.00;9.02;;;12.90;99.90;;;;;;5028868;28;20427;-79
2023/09/11 02:36:20;;;;;;;12.38;8.35;;;12.90;99.90;;;;;;5035177;28;20074;-81
2023/09/11 02:38:46;;;;;;;10.02;8.90;;;12.80;99.90;;;;;;5029358;28;20045;-79
2023/09/11 02:41:11;;;;;;;13.10;10.43;;;12.80;99.90;;;;;;5044625;28;20033;-79
2023/09/11 02:43:37;;;;;;;10.75;9.23;;;12.80;99.90;;;;;;5023808;28;20020;-79
2023/09/11 02:46:03;;;;;;;10.57;9.10;;;12.80;99.90;;;;;;5047429;28;20014;-79
2023/09/11 02:48:28;;;;;;;11.50;8.75;;;12.80;99.90;;;;;;5023511;28;20029;-81
2023/09/11 02:50:54;;;;;;;13.32;8.48;;;12.70;99.90;;;;;;5029343;28;20068;-80
2023/09/11 02:53:20;;;;;;;9.38;7.43;;;12.70;99.90;;;;;;5027209;28;20033;-80
2023/09/11 02:55:45;;;;;;;11.32;8.20;;;12.60;99.90;;;;;;5028989;28;20048;-78
2023/09/11 02:58:11;;;;;;;10.95;8.60;;;12.60;99.90;;;;;;5019989;28;20078;-79
2023/09/11 03:00:37;;;;;;;17.33;9.30;;;12.60;99.90;;;;;;5017356;28;20037;-80
2023/09/11 03:03:05;;;;;;;17.98;9.65;;;12.60;99.90;;;;;;5020323;28;20026;-79
2023/09/11 03:05:32;;;;;;;12.43;10.07;;;12.60;99.90;;;;;;5035204;28;20066;-79
2023/09/11 03:07:59;;;;;;;11.52;9.00;;;12.60;99.90;;;;;;5025760;28;20056;-80
2023/09/11 03:10:25;;;;;;;14.32;9.65;;;12.60;99.90;;;;;;5027743;28;20025;-78
2023/09/11 03:12:51;;;;;;;16.80;9.48;;;12.60;99.90;;;;;;5029534;28;20018;-78
2023/09/11 03:15:17;;;;;;;25.17;11.27;;;12.60;99.90;;;;;;5033251;28;20489;-78
2023/09/11 03:17:43;;;;;;;14.00;9.63;;;12.60;99.90;;;;;;5029363;28;20022;-79
2023/09/11 03:20:09;;;;;;;15.52;9.45;;;12.50;99.90;;;;;;5030644;28;20041;-80
2023/09/11 03:22:34;;;;;;;16.00;10.35;;;12.50;99.90;;;;;;5035930;28;20060;-79
2023/09/11 03:25:00;;;;;;;16.27;9.57;;;12.50;99.90;;;;;;5037502;28;20494;-80
2023/09/11 03:27:26;;;;;;;11.65;8.95;;;12.50;99.90;;;;;;5034939;28;20491;-78
2023/09/11 03:29:52;;;;;;;13.52;9.63;;;12.50;99.90;;;;;;5036982;28;20056;-79
2023/09/11 03:32:17;;;;;;;13.43;10.10;;;12.40;99.90;;;;;;5041102;28;20161;-81
2023/09/11 03:34:43;;;;;;;13.40;9.73;;;12.40;99.90;;;;;;5038412;28;20021;-79
2023/09/11 03:37:09;;;;;;;14.90;10.85;;;12.40;99.90;;;;;;5042868;28;20399;-78
2023/09/11 03:39:34;;;;;;;17.50;10.88;;;12.50;99.90;;;;;;5030745;28;20566;-81
2023/09/11 03:42:00;;;;;;;14.95;10.48;;;12.40;99.90;;;;;;5031726;28;20029;-80
2023/09/11 03:44:25;;;;;;;14.50;10.60;;;12.40;99.90;;;;;;5032936;28;20599;-80
2023/09/11 03:46:51;;;;;;;20.95;10.68;;;12.40;99.90;;;;;;5044697;28;20028;-78
2023/09/11 03:49:17;;;;;;;13.48;10.02;;;12.40;99.90;;;;;;5028830;28;20021;-80
2023/09/11 03:51:42;;;;;;;14.55;10.43;;;12.30;99.90;;;;;;5034206;28;20043;-78
2023/09/11 03:54:08;;;;;;;12.88;8.98;;;12.30;99.90;;;;;;5041409;28;20025;-78
2023/09/11 03:56:34;;;;;;;13.70;9.65;;;12.20;99.90;;;;;;5041145;28;20095;-80
2023/09/11 03:59:00;;;;;;;11.10;8.82;;;12.20;99.90;;;;;;5020761;28;20053;-78
2023/09/11 04:01:25;;;;;;;17.45;10.30;;;12.20;99.90;;;;;;5024627;28;20082;-80
2023/09/11 04:03:51;;;;;;;12.88;9.25;;;12.10;99.90;;;;;;5024106;28;20471;-77
2023/09/11 04:06:17;;;;;;;12.38;9.15;;;12.10;99.90;;;;;;5034901;28;20021;-77
2023/09/11 04:08:43;;;;;;;12.70;9.30;;;12.10;99.90;;;;;;5029561;28;20037;-78
2023/09/11 04:11:08;;;;;;;13.60;9.07;;;12.00;99.90;;;;;;5031602;28;20587;-78
2023/09/11 04:13:34;;;;;;;11.85;8.70;;;12.00;99.90;;;;;;5029102;28;20021;-80
2023/09/11 04:15:59;;;;;;;12.15;9.25;;;12.00;99.90;;;;;;5031528;28;20025;-78
2023/09/11 04:18:25;;;;;;;16.63;9.55;;;11.90;99.90;;;;;;5029278;28;20033;-79
2023/09/11 04:20:51;;;;;;;14.68;9.60;;;12.00;99.90;;;;;;5030065;28;20033;-80
2023/09/11 04:23:16;;;;;;;12.38;9.18;;;12.00;99.90;;;;;;5037925;28;20149;-78
2023/09/11 04:25:44;;;;;;;16.25;9.02;;;12.00;99.90;;;;;;5034609;28;20025;-78
2023/09/11 04:28:10;;;;;;;13.27;9.88;;;12.00;99.90;;;;;;5031010;28;20055;-80
2023/09/11 04:30:36;;;;;;;15.80;9.60;;;12.00;99.90;;;;;;5032769;28;20021;-77
2023/09/11 04:33:02;;;;;;;12.02;10.82;;;12.00;99.90;;;;;;5030515;28;20021;-77
2023/09/11 04:35:28;;;;;;;14.68;9.77;;;12.00;99.90;;;;;;5030017;28;20064;-77
2023/09/11 04:37:54;;;;;;;13.50;9.38;;;12.10;99.90;;;;;;5033036;28;20081;-77
2023/09/11 04:40:19;;;;;;;14.40;9.60;;;12.10;99.90;;;;;;5032833;28;20055;-77
2023/09/11 04:42:45;;;;;;;12.65;9.80;;;12.10;99.90;;;;;;5026932;28;20414;-80
2023/09/11 04:45:11;;;;;;;12.40;10.27;;;12.20;99.90;;;;;;5034076;28;20455;-80
2023/09/11 04:47:36;;;;;;;13.70;10.05;;;12.20;99.90;;;;;;5031037;28;20104;-79
2023/09/11 04:50:03;;;;;;;11.95;9.82;;;12.20;99.90;;;;;;5031074;28;20089;-78
2023/09/11 04:52:29;;;;;;;15.73;9.43;;;12.30;99.90;;;;;;5031899;28;20050;-80
2023/09/11 04:54:55;;;;;;;11.35;9.02;;;12.30;99.90;;;;;;5028661;28;20427;-77
2023/09/11 04:57:20;;;;;;;11.43;7.65;;;12.30;99.90;;;;;;5025543;28;20026;-78
2023/09/11 04:59:46;;;;;;;9.38;6.88;;;12.30;99.90;;;;;;5011805;28;20021;-77
2023/09/11 05:02:12;;;;;;;8.90;6.10;;;12.30;99.90;;;;;;5028476;28;20398;-79
2023/09/11 05:04:39;;;;;;;9.15;6.60;;;12.40;99.90;;;;;;5022545;28;20029;-80
2023/09/11 05:07:05;;;;;;;9.50;7.97;;;12.40;99.90;;;;;;5030258;28;20150;-80
2023/09/11 05:09:32;;;;;;;9.85;8.02;;;12.40;99.90;;;;;;5026221;28;20486;-82
2023/09/11 05:11:57;;;;;;;10.45;8.07;;;12.50;99.90;;;;;;5037528;28;20055;-79
2023/09/11 05:14:23;;;;;;;10.68;9.00;;;12.60;99.90;;;;;;5029773;28;20498;-79
2023/09/11 05:16:49;;;;;;;15.07;10.15;;;12.70;99.90;;;;;;5037414;28;20014;-78
2023/09/11 05:19:15;;;;;;;15.90;9.38;;;12.90;99.90;;;;;;5031275;28;20036;-76
2023/09/11 05:21:41;;;;;;;11.25;9.45;;;13.00;99.90;;;;;;5039132;28;20033;-77
2023/09/11 05:24:07;;;;;;;11.95;9.25;;;13.20;99.90;;;;;;5029500;28;20048;-77
2023/09/11 05:26:32;;;;;;;10.13;8.77;;;13.30;99.90;;;;;;5039463;28;20025;-78
2023/09/11 05:28:58;;;;;;;15.20;9.85;;;13.40;99.90;;;;;;5033075;28;20018;-77
2023/09/11 05:31:24;;;;;;;21.60;10.02;;;13.60;99.90;;;;;;5028625;28;20106;-76
2023/09/11 05:33:49;;;;;;;22.60;10.18;;;13.70;99.90;;;;;;5028769;28;20034;-78
2023/09/11 05:36:15;;;;;;;12.27;9.45;;;13.80;99.90;;;;;;5027112;28;20372;-78
2023/09/11 05:38:41;;;;;;;12.88;9.82;;;14.00;99.90;;;;;;5036725;28;20046;-77
2023/09/11 05:41:07;;;;;;;14.73;10.05;;;14.10;99.90;;;;;;5037756;28;20116;-76
2023/09/11 05:43:32;;;;;;;13.48;10.15;;;14.30;99.90;;;;;;5033308;28;20104;-78
2023/09/11 05:45:58;;;;;;;16.80;11.02;;;14.40;99.90;;;;;;5030339;28;20464;-78
2023/09/11 05:48:24;;;;;;;16.27;10.13;;;14.60;99.90;;;;;;5020696;28;20494;-79
2023/09/11 05:50:49;;;;;;;17.58;10.98;;;14.70;99.90;;;;;;5036315;28;20022;-77
2023/09/11 05:53:15;;;;;;;17.92;11.82;;;14.90;99.90;;;;;;5037820;28;20025;-79
2023/09/11 05:55:41;;;;;;;13.02;9.95;;;15.10;99.90;;;;;;5036190;28;20021;-78
2023/09/11 05:58:07;;;;;;;17.67;11.13;;;15.30;99.90;;;;;;5029051;28;20021;-78
2023/09/11 06:00:33;;;;;;;16.48;10.77;;;15.50;99.90;;;;;;5015517;28;20463;-79
2023/09/11 06:02:58;;;;;;;15.88;10.43;;;15.70;99.90;;;;;;5025013;28;20006;-79
2023/09/11 06:05:25;;;;;;;12.82;9.52;;;15.90;99.90;;;;;;5032413;28;20070;-79
2023/09/11 06:07:51;;;;;;;17.23;11.27;;;16.10;99.90;;;;;;5025517;28;20095;-79
2023/09/11 06:10:17;;;;;;;13.43;10.50;;;16.40;99.90;;;;;;5029264;28;20028;-79
2023/09/11 06:12:42;;;;;;;16.77;10.73;;;16.70;99.90;;;;;;5023661;28;20022;-79
2023/09/11 06:15:08;;;;;;;12.85;10.15;;;16.80;99.90;;;;;;5030322;28;20017;-79
2023/09/11 06:17:34;;;;;;;16.40;10.02;;;17.10;99.90;;;;;;5026603;28;20445;-78
2023/09/11 06:20:00;;;;;;;16.58;10.93;;;17.30;99.90;;;;;;5029146;28;20394;-79
2023/09/11 06:22:27;;;;;;;19.42;10.77;;;17.50;99.90;;;;;;5022509;28;20030;-77
2023/09/11 06:24:52;;;;;;;14.02;10.68;;;17.70;99.90;;;;;;5031703;28;20489;-77
2023/09/11 06:27:18;;;;;;;13.38;11.55;;;17.90;99.90;;;;;;5026618;28;20022;-79
2023/09/11 06:29:44;;;;;;;15.88;12.07;;;18.20;99.90;;;;;;5028321;28;20044;-79
2023/09/11 06:32:15;;;;;;;20.20;11.75;;;18.40;99.90;;;;;;5026467;28;20026;-79
2023/09/11 06:34:41;;;;;;;16.50;12.20;;;18.60;99.90;;;;;;5044051;28;20029;-79
2023/09/11 06:37:09;;;;;;;14.02;11.43;;;18.80;99.90;;;;;;5039377;28;20111;-78
2023/09/11 06:39:34;;;;;;;18.13;12.85;;;19.00;99.90;;;;;;5027183;28;20161;-78
2023/09/11 06:42:00;;;;;;;15.50;13.35;;;19.30;99.90;;;;;;5040017;28;20480;-79
2023/09/11 06:44:26;;;;;;;17.00;12.40;;;19.40;99.90;;;;;;5029409;28;20112;-77
2023/09/11 06:46:51;;;;;;;14.82;11.43;;;19.60;99.90;;;;;;5039266;28;20051;-79
2023/09/11 06:49:17;;;;;;;18.00;12.07;;;19.70;99.90;;;;;;5028728;28;20094;-79
2023/09/11 06:51:43;;;;;;;18.05;11.88;;;19.90;99.90;;;;;;5029418;28;20505;-79
2023/09/11 06:54:09;;;;;;;15.90;11.60;;;20.10;99.90;;;;;;5026315;28;20017;-80
2023/09/11 06:56:41;;;;;;;15.05;11.07;;;20.30;99.90;;;;;;5042110;28;20025;-79
2023/09/11 06:59:07;;;;;;;13.95;10.73;;;20.50;99.90;;;;;;5046019;28;20026;-77
2023/09/11 07:01:38;;;;;;;11.85;10.35;;;20.70;99.90;;;;;;5031175;28;20041;-78
2023/09/11 07:04:06;;;;;;;12.55;11.07;;;20.80;99.90;;;;;;5035267;28;20025;-79
2023/09/11 07:06:32;;;;;;;12.27;10.00;;;21.00;99.90;;;;;;5034383;28;20085;-77
2023/09/11 07:08:58;;;;;;;14.38;10.77;;;21.20;99.90;;;;;;5031357;28;20030;-77
2023/09/11 07:11:23;;;;;;;15.38;10.80;;;21.30;99.90;;;;;;5040422;28;20021;-77
2023/09/11 07:13:54;;;;;;;12.95;9.73;;;21.50;99.90;;;;;;5036635;28;20474;-77
2023/09/11 07:16:20;;;;;;;13.05;9.65;;;21.60;99.90;;;;;;5028864;28;20018;-78
2023/09/11 07:18:46;;;;;;;13.27;9.68;;;21.80;99.90;;;;;;5043102;28;20033;-78
2023/09/11 07:21:12;;;;;;;10.50;8.55;;;21.90;99.90;;;;;;5032720;28;20120;-78
2023/09/11 07:23:38;;;;;;;10.90;9.10;;;22.00;95.20;;;;;;5024468;28;20430;-78
2023/09/11 07:26:03;;;;;;;10.05;8.85;;;22.10;92.50;;;;;;5031002;28;20491;-77
2023/09/11 07:28:29;;;;;;;10.27;8.45;;;22.20;86.60;;;;;;5031640;28;20037;-81
2023/09/11 07:30:55;;;;;;;12.73;8.40;;;22.20;87.10;;;;;;5040438;28;20053;-80
2023/09/11 07:33:21;;;;;;;11.45;8.82;;;22.30;84.70;;;;;;5038782;28;20021;-78
2023/09/11 07:35:46;;;;;;;9.02;8.10;;;22.50;87.40;;;;;;5032646;28;20031;-80
2023/09/11 07:38:12;;;;;;;12.88;8.95;;;22.50;81.90;;;;;;5031821;28;20050;-77
2023/09/11 07:40:38;;;;;;;11.20;8.98;;;22.70;82.30;;;;;;5031822;28;20026;-80
2023/09/11 07:43:04;;;;;;;10.75;8.95;;;22.80;83.20;;;;;;5026542;28;20017;-77
2023/09/11 07:45:30;;;;;;;11.15;8.65;;;22.80;82.20;;;;;;5031839;28;20021;-80
2023/09/11 07:47:56;;;;;;;10.82;9.00;;;22.80;81.00;;;;;;5021431;28;20032;-80
2023/09/11 07:50:22;;;;;;;9.00;8.10;;;22.90;81.80;;;;;;5031781;28;20021;-77
2023/09/11 07:52:47;;;;;;;9.32;8.10;;;23.00;80.60;;;;;;5031273;28;20079;-80
2023/09/11 07:55:14;;;;;;;9.95;8.73;;;23.10;80.40;;;;;;5038020;28;20065;-78
2023/09/11 07:57:43;;;;;;;11.52;8.68;;;23.20;78.60;;;;;;5023483;28;20065;-78
2023/09/11 08:00:09;;;;;;;13.05;8.75;;;23.30;78.70;;;;;;5022058;28;20068;-78
2023/09/11 08:02:36;;;;;;;8.55;7.75;;;23.40;77.70;;;;;;5028952;28;20029;-80
2023/09/11 08:05:02;;;;;;;10.02;8.43;;;23.40;76.70;;;;;;5032116;28;20110;-81
2023/09/11 08:07:28;;;;;;;9.27;8.38;;;23.50;75.70;;;;;;5032083;28;20110;-81
2023/09/11 08:09:54;;;;;;;9.60;8.60;;;23.70;77.70;;;;;;5022772;28;20077;-78
2023/09/11 08:12:20;;;;;;;16.02;9.85;;;23.80;76.20;;;;;;5023141;28;20555;-78
2023/09/11 08:14:46;;;;;;;11.95;8.63;;;23.70;75.60;;;;;;5024872;28;20021;-81
2023/09/11 08:17:12;;;;;;;10.18;8.70;;;23.70;74.00;;;;;;5013155;28;20021;-81
2023/09/11 08:19:38;;;;;;;9.93;8.45;;;23.80;73.90;;;;;;5021533;28;20082;-78
2023/09/11 08:22:04;;;;;;;10.43;8.60;;;23.90;73.40;;;;;;5026840;28;20025;-81
2023/09/11 08:24:30;;;;;;;9.07;8.20;;;24.00;73.50;;;;;;5023481;28;20022;-82
2023/09/11 08:26:56;;;;;;;11.48;8.45;;;24.10;73.10;;;;;;5018596;28;20032;-81
2023/09/11 08:29:21;;;;;;;9.57;8.68;;;24.20;71.10;;;;;;5018245;28;20060;-79
2023/09/11 08:31:47;;;;;;;9.30;8.40;;;24.30;72.00;;;;;;5014916;28;20046;-78
2023/09/11 08:34:13;;;;;;;9.32;8.27;;;24.30;70.90;;;;;;5012952;28;20031;-82
2023/09/11 08:36:39;;;;;;;9.00;8.15;;;24.40;69.90;;;;;;5016055;28;20060;-82
2023/09/11 08:39:05;;;;;;;10.32;8.13;;;24.40;69.60;;;;;;5016845;28;20055;-81
2023/09/11 08:41:31;;;;;;;9.57;8.68;;;24.50;69.80;;;;;;5012911;28;20112;-82
2023/09/11 08:43:57;;;;;;;9.40;8.50;;;24.60;70.20;;;;;;5035234;28;20072;-82
2023/09/11 08:46:23;;;;;;;10.75;8.32;;;24.70;69.60;;;;;;5031835;28;20498;-87
2023/09/11 08:48:57;;;;;;;9.40;8.38;;;24.80;69.50;;;;;;5018483;28;20082;-87
2023/09/11 08:51:32;;;;;;;11.00;8.38;;;25.00;69.70;;;;;;5030498;28;20497;-88
2023/09/11 08:54:02;;;;;;;10.20;8.88;;;25.00;68.30;;;;;;5031415;28;20418;-81
2023/09/11 08:56:29;;;;;;;8.90;7.45;;;25.10;67.10;;;;;;5029448;28;20026;-81
2023/09/11 08:58:56;;;;;;;9.77;8.10;;;25.10;66.70;;;;;;5014008;28;20022;-87
2023/09/11 09:01:22;;;;;;;8.65;7.75;;;25.20;67.00;;;;;;5023664;28;20025;-82
2023/09/11 09:03:50;;;;;;;11.60;8.60;;;25.30;67.60;;;;;;5028491;28;20030;-82
2023/09/11 09:06:18;;;;;;;9.88;8.25;;;25.50;66.40;;;;;;5029438;28;20434;-82
2023/09/11 09:08:44;;;;;;;10.90;8.07;;;25.50;65.80;;;;;;5017113;28;20121;-82
2023/09/11 09:11:11;;;;;;;10.40;7.85;;;25.70;65.70;;;;;;5029386;28;20048;-82
2023/09/11 09:13:37;;;;;;;9.13;7.80;;;25.70;65.10;;;;;;5023538;28;20029;-86
2023/09/11 09:16:03;;;;;;;8.13;7.32;;;25.60;64.50;;;;;;5029001;28;20096;-81
2023/09/11 09:18:29;;;;;;;9.13;8.23;;;25.70;65.50;;;;;;5020508;28;20105;-83
2023/09/11 09:20:55;;;;;;;11.27;7.22;;;25.80;64.40;;;;;;5031520;28;20053;-81
2023/09/11 09:23:32;;;;;;;11.00;7.80;;;25.90;64.40;;;;;;5029862;28;20091;-87
2023/09/11 09:26:06;;;;;;;12.13;8.27;;;25.90;63.60;;;;;;5030941;28;20049;-82
2023/09/11 09:28:33;;;;;;;9.63;7.25;;;25.90;63.70;;;;;;5026804;28;20386;-87
2023/09/11 09:30:59;;;;;;;10.55;8.40;;;25.90;63.30;;;;;;5023927;28;20042;-88
2023/09/11 09:33:25;;;;;;;10.45;7.60;;;26.00;63.10;;;;;;5032797;28;20036;-89
2023/09/11 09:35:51;;;;;;;11.05;7.85;;;26.00;62.60;;;;;;5029747;28;20100;-89
2023/09/11 09:38:20;;;;;;;8.32;7.45;;;26.10;62.50;;;;;;5025857;28;20042;-90
2023/09/11 09:40:47;;;;;;;8.73;7.88;;;26.20;62.70;;;;;;5027622;28;20036;-88
2023/09/11 09:43:17;;;;;;;8.73;7.82;;;26.40;63.30;;;;;;5029194;28;20467;-90
2023/09/11 09:45:43;;;;;;;9.05;8.15;;;26.40;61.20;;;;;;5025724;28;20047;-89
2023/09/11 09:48:12;;;;;;;11.35;8.10;;;26.40;60.40;;;;;;5026694;28;20118;-87
2023/09/11 09:50:51;;;;;;;8.45;7.57;;;26.50;60.50;;;;;;5032052;28;20034;-89
2023/09/11 09:53:26;;;;;;;8.95;7.55;;;26.50;61.20;;;;;;5033457;28;20021;-85
2023/09/11 09:55:53;;;;;;;11.02;7.32;;;26.60;59.60;;;;;;5029961;28;20021;-88
2023/09/11 09:58:20;;;;;;;6.65;6.05;;;26.50;58.40;;;;;;5030972;28;20030;-84
2023/09/11 10:00:47;;;;;;;9.88;7.00;;;26.70;58.50;;;;;;5026238;28;20432;-90
2023/09/11 10:03:12;;;;;;;8.75;6.97;;;26.70;58.40;;;;;;5035316;28;20547;-90
2023/09/11 10:05:41;;;;;;;8.77;7.47;;;26.70;57.40;;;;;;5036174;28;20013;-90
2023/09/11 10:08:07;;;;;;;8.30;7.53;;;26.70;58.40;;;;;;5038597;28;20073;-90
2023/09/11 10:10:34;;;;;;;8.98;7.10;;;26.90;59.30;;;;;;5027311;28;20749;-90
2023/09/11 10:13:12;;;;;;;8.38;6.80;;;26.90;58.80;;;;;;5035330;28;20379;-83
2023/09/11 10:15:41;;;;;;;9.32;7.15;;;26.90;57.50;;;;;;5035302;28;20037;-85
2023/09/11 10:18:11;;;;;;;6.78;5.78;;;27.00;57.80;;;;;;5031152;28;20497;-83
2023/09/11 10:20:38;;;;;;;6.22;5.57;;;27.10;57.00;;;;;;5028978;28;20025;-84
2023/09/11 10:23:05;;;;;;;6.18;5.57;;;27.10;55.60;;;;;;5034149;28;20432;-91
2023/09/11 10:25:56;;;;;;;10.60;6.45;;;27.10;55.30;;;;;;5035087;28;20026;-90
2023/09/11 10:28:30;;;;;;;8.10;7.25;;;27.20;56.50;;;;;;5025966;28;20034;-82
2023/09/11 10:31:16;;;;;;;6.97;6.28;;;27.20;55.70;;;;;;5031183;28;20486;-83
2023/09/11 10:33:44;;;;;;;7.75;6.55;;;27.30;56.50;;;;;;5029529;28;20120;-82
2023/09/11 10:36:14;;;;;;;10.20;7.50;;;27.40;55.50;;;;;;5031503;28;20022;-84
2023/09/11 10:38:44;;;;;;;7.63;6.93;;;27.50;56.30;;;;;;5028897;28;20049;-90
2023/09/11 10:41:12;;;;;;;6.05;5.55;;;27.50;56.10;;;;;;5033939;28;20037;-84
2023/09/11 10:43:38;;;;;;;6.38;5.78;;;27.60;53.70;;;;;;5030055;28;20068;-85
2023/09/11 10:46:21;;;;;;;7.10;6.40;;;27.60;53.80;;;;;;5037930;28;20069;-85
2023/09/11 10:48:48;;;;;;;8.68;6.35;;;27.60;53.70;;;;;;5030462;28;20083;-84
2023/09/11 10:51:14;;;;;;;8.55;5.75;;;27.70;53.90;;;;;;5029677;28;20044;-84
2023/09/11 10:53:41;;;;;;;8.77;6.55;;;27.60;53.50;;;;;;5035037;28;20018;-84
2023/09/11 10:56:07;;;;;;;8.50;6.45;;;27.60;54.20;;;;;;5033290;28;20017;-91
2023/09/11 10:58:34;;;;;;;9.63;6.03;;;27.80;53.20;;;;;;5032663;28;20030;-85
2023/09/11 11:01:03;;;;;;;8.40;6.30;;;27.60;52.50;;;;;;5035807;28;20025;-89
2023/09/11 11:03:30;;;;;;;8.13;6.93;;;27.50;52.60;;;;;;5028799;28;20021;-84
2023/09/11 11:05:58;;;;;;;8.20;6.85;;;27.60;52.90;;;;;;5032052;28;20037;-85
2023/09/11 11:08:24;;;;;;;9.95;7.70;;;27.70;53.50;;;;;;5034960;28;20054;-91
2023/09/11 11:10:57;;;;;;;10.25;7.72;;;27.80;53.50;;;;;;5032390;28;20072;-90
2023/09/11 11:13:23;;;;;;;10.65;8.38;;;27.80;54.10;;;;;;5031457;28;20124;-89
2023/09/11 11:16:09;;;;;;;11.40;8.95;;;27.60;53.40;;;;;;5030490;28;20531;-83
2023/09/11 11:18:35;;;;;;;10.98;8.73;;;27.40;53.40;;;;;;5054999;28;20075;-84
2023/09/11 11:21:00;;;;;;;15.90;9.25;;;27.50;54.70;;;;;;5035340;28;20029;-90
2023/09/11 11:23:34;;;;;;;10.88;8.75;;;27.50;54.70;;;;;;5037838;28;20101;-84
2023/09/11 11:26:04;;;;;;;10.13;8.65;;;27.40;54.80;;;;;;5036578;28;20077;-84
2023/09/11 11:28:39;;;;;;;12.25;8.80;;;27.30;54.70;;;;;;5035713;28;20424;-85
2023/09/11 11:31:10;;;;;;;10.55;9.10;;;27.40;55.70;;;;;;5026017;28;20044;-85
2023/09/11 11:33:38;;;;;;;9.75;8.73;;;27.50;55.60;;;;;;5031854;28;20394;-84
2023/09/11 11:36:08;;;;;;;11.95;8.82;;;27.60;55.90;;;;;;5030046;28;20108;-85
2023/09/11 11:38:34;;;;;;;13.85;8.63;;;27.80;56.00;;;;;;5031074;28;20057;-85
2023/09/11 11:41:01;;;;;;;13.70;8.85;;;27.90;56.10;;;;;;5033376;28;20110;-84
2023/09/11 11:43:29;;;;;;;9.77;8.35;;;27.80;54.60;;;;;;5032783;28;20037;-85
2023/09/11 11:45:56;;;;;;;11.10;8.43;;;27.70;54.80;;;;;;5030762;28;20574;-89
2023/09/11 11:48:22;;;;;;;13.07;8.63;;;27.80;55.20;;;;;;5033355;28;20078;-91
2023/09/11 11:50:48;;;;;;;9.95;8.25;;;27.80;54.60;;;;;;5034601;28;20351;-90
2023/09/11 11:53:24;;;;;;;15.63;8.48;;;27.90;54.70;;;;;;5031548;28;20025;-91
2023/09/11 11:55:54;;;;;;;10.93;8.52;;;27.90;55.20;;;;;;5031321;28;20025;-90
2023/09/11 11:58:19;;;;;;;12.75;8.52;;;27.90;54.70;;;;;;5038680;28;20017;-89
2023/09/11 12:01:06;;;;;;;15.43;9.15;;;28.00;54.90;;;;;;5018463;28;20031;-84
2023/09/11 12:03:44;;;;;;;10.93;8.82;;;27.90;53.50;;;;;;5029814;28;20021;-86
2023/09/11 12:06:10;;;;;;;9.30;8.40;;;28.00;55.00;;;;;;5033960;28;20091;-89
2023/09/11 12:08:36;;;;;;;13.40;8.55;;;28.10;53.90;;;;;;5031009;28;20047;-90
2023/09/11 12:11:02;;;;;;;10.40;8.48;;;28.20;53.30;;;;;;5030641;28;20513;-85
2023/09/11 12:13:28;;;;;;;14.23;8.50;;;28.10;53.10;;;;;;5030948;28;20025;-85
2023/09/11 12:15:56;;;;;;;11.98;8.38;;;28.10;52.50;;;;;;5032349;28;20100;-84
2023/09/11 12:18:23;;;;;;;9.93;7.57;;;28.00;53.50;;;;;;5036900;28;20035;-90
2023/09/11 12:21:02;;;;;;;10.48;8.63;;;28.00;53.90;;;;;;5027407;28;20022;-90
2023/09/11 12:23:29;;;;;;;10.05;7.88;;;27.80;52.20;;;;;;5023421;28;20040;-91
2023/09/11 12:25:55;;;;;;;12.55;8.60;;;27.90;52.50;;;;;;5030090;28;20488;-91
2023/09/11 12:28:22;;;;;;;13.07;7.72;;;27.80;52.20;;;;;;5028805;28;20037;-87
2023/09/11 12:30:48;;;;;;;11.20;8.43;;;27.90;52.20;;;;;;5032218;28;20534;-85
2023/09/11 12:33:16;;;;;;;9.48;8.57;;;27.90;52.20;;;;;;5033631;28;20028;-86
2023/09/11 12:35:43;;;;;;;11.27;9.00;;;28.00;53.00;;;;;;5034999;28;20018;-86